Terminal Aerodrome Forecast
Issued by NWS Milwaukee/Sullivan, WI

Home | Current Version | Previous Version | Text Only | Print | Product List | Glossary On
Versions: 1 2 3 4 5 6 7 8 9 10 11 12 13 14 15 16 17 18 19 20 21 22 23 24 25 26 27 28 29 30 31 32 33 34
000
FTUS43 KMKX 241120
TAFMSN
TAF
KMSN 241120Z 2412/2512 00000KT 1SM BR OVC003
     FM241400 VRB03KT 1 1/2SM BR OVC005
     FM241600 20006KT 6SM BR OVC006
     FM241900 20008KT P6SM BKN015
     FM242100 20008KT P6SM BKN250
     FM250400 23005KT P6SM BKN030
     FM251000 26004KT P6SM SCT030
     FM251100 29004KT P6SM SCT200=

USA.gov is the U.S. government's official web portal to all federal, state and local government web resources and services.